createdAt,value
2019-05-26T00:00:04.372Z,5.40
2019-05-26T00:02:33.241Z,4.70
2019-05-26T00:05:02.074Z,4.73
2019-05-26T00:07:31.212Z,5.20
2019-05-26T00:10:00.121Z,4.40
2019-05-26T00:12:28.936Z,4.40
2019-05-26T00:14:57.812Z,5.23
2019-05-26T00:17:26.675Z,4.87
2019-05-26T00:19:55.502Z,4.93
2019-05-26T00:22:24.367Z,4.67
2019-05-26T00:24:53.226Z,5.27
2019-05-26T00:27:22.059Z,4.97
2019-05-26T00:29:50.930Z,5.00
2019-05-26T00:32:21.103Z,5.00
2019-05-26T00:34:49.932Z,4.37
2019-05-26T00:37:18.803Z,5.43
2019-05-26T00:39:47.666Z,4.20
2019-05-26T00:42:16.507Z,4.90
2019-05-26T00:44:45.358Z,4.50
2019-05-26T00:47:14.218Z,4.67
2019-05-26T00:49:43.059Z,4.57
2019-05-26T00:52:11.925Z,6.17
2019-05-26T00:54:40.790Z,5.70
2019-05-26T00:57:09.623Z,6.87
2019-05-26T00:59:38.489Z,4.80
2019-05-26T01:02:08.989Z,5.00
2019-05-26T01:04:37.804Z,5.37
2019-05-26T01:07:06.681Z,4.73
2019-05-26T01:09:35.507Z,4.60
2019-05-26T01:12:04.384Z,5.23
2019-05-26T01:14:33.207Z,5.10
2019-05-26T01:17:02.080Z,6.27
2019-05-26T01:19:30.907Z,5.43
2019-05-26T01:21:59.770Z,7.83
2019-05-26T01:24:28.599Z,6.07
2019-05-26T01:26:57.475Z,5.23
2019-05-26T01:29:26.300Z,5.70
2019-05-26T01:31:55.171Z,6.13
2019-05-26T01:34:24.036Z,6.37
2019-05-26T01:36:53.564Z,6.43
2019-05-26T01:39:22.427Z,7.30
2019-05-26T01:41:51.295Z,6.03
2019-05-26T01:44:20.128Z,6.10
2019-05-26T01:46:48.991Z,9.43
2019-05-26T01:49:17.855Z,6.67
2019-05-26T01:51:46.683Z,6.83
2019-05-26T01:54:15.547Z,6.13
2019-05-26T01:56:44.419Z,6.30
2019-05-26T01:59:13.247Z,7.57
2019-05-26T02:01:42.108Z,6.30
2019-05-26T02:04:10.975Z,6.70
2019-05-26T02:06:39.798Z,6.20
2019-05-26T02:09:09.063Z,8.47
2019-05-26T02:11:37.927Z,6.00
2019-05-26T02:14:06.764Z,6.13
2019-05-26T02:16:35.635Z,9.20
2019-05-26T02:19:04.602Z,5.77
2019-05-26T02:21:33.434Z,6.53
2019-05-26T02:24:02.297Z,7.47
2019-05-26T02:26:31.167Z,6.13
2019-05-26T02:28:59.996Z,6.93
2019-05-26T02:31:29.391Z,6.63
2019-05-26T02:33:58.254Z,6.00
2019-05-26T02:36:27.085Z,6.17
2019-05-26T02:39:02.735Z,6.07
2019-05-26T02:41:26.468Z,8.27
2019-05-26T02:43:55.317Z,8.00
2019-05-26T02:46:24.168Z,7.33
2019-05-26T02:48:53.033Z,6.60
2019-05-26T02:51:21.861Z,6.30
2019-05-26T02:53:50.733Z,6.33
2019-05-26T02:56:19.603Z,6.40
2019-05-26T02:58:48.424Z,6.80
2019-05-26T03:01:18.865Z,7.97
2019-05-26T03:03:47.735Z,6.20
2019-05-26T03:06:17.463Z,5.20
2019-05-26T03:08:48.002Z,6.17
2019-05-26T03:11:17.775Z,8.77
2019-05-26T03:13:48.475Z,6.00
2019-05-26T03:16:20.115Z,6.90
2019-05-26T03:18:52.056Z,5.80
2019-05-26T03:21:23.296Z,6.30
2019-05-26T03:23:53.642Z,5.37
2019-05-26T03:26:23.941Z,6.33
2019-05-26T03:28:52.817Z,6.00
2019-05-26T03:31:23.087Z,6.20
2019-05-26T03:33:51.908Z,5.60
2019-05-26T03:36:20.781Z,6.90
2019-05-26T03:38:49.653Z,6.63
2019-05-26T03:41:18.474Z,6.17
2019-05-26T03:43:47.345Z,6.47
2019-05-26T03:46:19.981Z,7.83
2019-05-26T03:48:49.376Z,6.63
2019-05-26T03:51:18.335Z,6.10
2019-05-26T03:53:47.166Z,6.93
2019-05-26T03:56:19.170Z,6.33
2019-05-26T03:58:48.001Z,7.13
2019-05-26T04:01:17.795Z,6.03
2019-05-26T04:03:46.655Z,6.33
2019-05-26T04:06:15.494Z,6.93
2019-05-26T04:08:44.360Z,6.70
2019-05-26T04:11:13.219Z,6.23
2019-05-26T04:13:42.045Z,7.30
2019-05-26T04:16:10.920Z,7.43
2019-05-26T04:18:39.814Z,6.23
2019-05-26T04:21:09.716Z,6.70
2019-05-26T04:23:38.583Z,7.00
2019-05-26T04:26:07.446Z,6.87
2019-05-26T04:28:36.284Z,7.37
2019-05-26T04:31:05.764Z,8.00
2019-05-26T04:33:34.630Z,8.60
2019-05-26T04:36:03.502Z,7.50
2019-05-26T04:38:32.470Z,10.33
2019-05-26T04:41:01.418Z,7.57
2019-05-26T04:43:30.223Z,7.97
2019-05-26T04:45:59.097Z,6.90
2019-05-26T04:48:27.932Z,11.10
2019-05-26T04:50:56.803Z,7.20
2019-05-26T04:53:25.729Z,7.60
2019-05-26T04:55:54.596Z,7.47
2019-05-26T04:58:23.431Z,7.20
2019-05-26T05:00:53.763Z,7.97
2019-05-26T05:03:22.635Z,8.20
2019-05-26T05:05:51.456Z,7.40
2019-05-26T05:08:20.328Z,8.03
2019-05-26T05:10:49.195Z,8.77
2019-05-26T05:13:18.026Z,8.70
2019-05-26T05:15:46.898Z,8.93
2019-05-26T05:18:15.767Z,9.90
2019-05-26T05:20:44.599Z,13.07
2019-05-26T05:23:13.471Z,13.93
2019-05-26T05:25:42.351Z,12.40
2019-05-26T05:28:11.174Z,13.03
2019-05-26T05:30:40.514Z,12.00
2019-05-26T05:33:09.387Z,11.47
2019-05-26T05:35:38.221Z,12.47
2019-05-26T05:38:07.092Z,11.67
2019-05-26T05:40:35.960Z,12.67
2019-05-26T05:43:04.792Z,12.70
2019-05-26T05:45:33.665Z,13.57
2019-05-26T05:48:03.039Z,14.80
2019-05-26T05:50:31.875Z,11.80
2019-05-26T05:53:00.751Z,12.33
2019-05-26T05:55:29.624Z,12.53
2019-05-26T05:57:58.461Z,12.17
2019-05-26T06:00:28.971Z,12.60
2019-05-26T06:02:57.836Z,13.20
2019-05-26T06:05:26.676Z,12.77
2019-05-26T06:07:55.551Z,13.87
2019-05-26T06:10:24.431Z,12.83
2019-05-26T06:12:53.270Z,13.73
2019-05-26T06:15:22.250Z,15.23
2019-05-26T06:17:51.139Z,11.37
2019-05-26T06:20:38.207Z,12.63
2019-05-26T06:23:07.080Z,11.93
2019-05-26T06:25:35.916Z,11.20
2019-05-26T06:28:04.788Z,12.30
2019-05-26T06:30:33.662Z,13.47
2019-05-26T06:33:02.496Z,12.73
2019-05-26T06:35:32.837Z,12.40
2019-05-26T06:38:02.043Z,11.60
2019-05-26T06:40:30.876Z,12.03
2019-05-26T06:42:59.747Z,14.10
2019-05-26T06:45:28.619Z,11.77
2019-05-26T06:47:57.676Z,11.63
2019-05-26T06:50:26.575Z,12.93
2019-05-26T06:52:55.447Z,12.90
2019-05-26T06:55:24.289Z,11.87
2019-05-26T06:57:53.159Z,12.00
2019-05-26T07:00:22.795Z,13.60
2019-05-26T07:02:51.680Z,11.77
2019-05-26T07:05:20.639Z,11.43
2019-05-26T07:07:49.511Z,10.77
2019-05-26T07:10:18.640Z,11.50
2019-05-26T07:12:47.508Z,10.20
2019-05-26T07:15:16.376Z,10.10
2019-05-26T07:17:45.218Z,11.13
2019-05-26T07:20:14.884Z,10.30
2019-05-26T07:22:43.762Z,11.50
2019-05-26T07:25:12.580Z,10.90
2019-05-26T07:27:41.464Z,10.87
2019-05-26T07:30:11.450Z,10.77
2019-05-26T07:32:40.285Z,9.47
2019-05-26T07:35:09.449Z,11.57
2019-05-26T07:37:38.324Z,10.50
2019-05-26T07:40:07.599Z,10.53
2019-05-26T07:42:36.466Z,10.63
2019-05-26T07:45:07.272Z,9.87
2019-05-26T07:47:36.181Z,10.83
2019-05-26T07:50:09.104Z,8.00
2019-05-26T07:52:37.963Z,7.53
2019-05-26T07:55:07.007Z,8.20
2019-05-26T07:57:35.858Z,7.90
2019-05-26T08:00:08.103Z,7.43
2019-05-26T08:02:36.926Z,8.57
2019-05-26T08:05:07.808Z,9.50
2019-05-26T08:07:36.741Z,8.47
2019-05-26T08:10:09.045Z,10.83
2019-05-26T08:12:37.869Z,8.13
2019-05-26T08:15:07.355Z,8.33
2019-05-26T08:17:36.163Z,8.17
2019-05-26T08:20:09.723Z,8.10
2019-05-26T08:22:39.157Z,7.87
2019-05-26T08:25:08.734Z,7.80
2019-05-26T08:27:37.560Z,9.20
2019-05-26T08:30:08.341Z,9.80
2019-05-26T08:32:37.207Z,9.90
2019-05-26T08:35:09.538Z,8.33
2019-05-26T08:37:38.393Z,9.80
2019-05-26T08:40:19.572Z,10.40
2019-05-26T08:42:52.351Z,9.03
2019-05-26T08:45:22.956Z,7.10
2019-05-26T08:47:52.343Z,6.80
2019-05-26T08:50:21.816Z,6.20
2019-05-26T08:52:50.747Z,8.30
2019-05-26T08:55:19.614Z,6.10
2019-05-26T08:57:48.546Z,5.07
2019-05-26T09:00:19.087Z,4.83
2019-05-26T09:02:48.020Z,5.40
2019-05-26T09:05:17.879Z,6.23
2019-05-26T09:07:46.715Z,5.27
2019-05-26T09:10:16.786Z,8.00
2019-05-26T09:12:59.626Z,5.03
2019-05-26T09:15:16.135Z,4.67
2019-05-26T09:17:44.958Z,8.37
2019-05-26T09:20:14.335Z,5.80
2019-05-26T09:22:43.198Z,4.10
2019-05-26T09:25:12.431Z,4.30
2019-05-26T09:27:41.309Z,3.40
2019-05-26T09:30:10.732Z,7.83
2019-05-26T09:32:41.247Z,4.27
2019-05-26T09:35:10.281Z,5.80
2019-05-26T09:37:39.140Z,3.90
2019-05-26T09:40:09.740Z,6.73
2019-05-26T09:42:38.615Z,4.00
2019-05-26T09:45:09.053Z,4.30
2019-05-26T09:47:37.919Z,3.10
2019-05-26T09:50:07.760Z,3.97
2019-05-26T09:52:37.266Z,4.10
2019-05-26T09:55:09.399Z,4.30
2019-05-26T09:57:38.304Z,3.93
2019-05-26T10:00:09.449Z,4.53
2019-05-26T10:02:39.491Z,4.57
2019-05-26T10:05:09.644Z,3.63
2019-05-26T10:07:38.524Z,3.57
2019-05-26T10:10:08.684Z,3.83
2019-05-26T10:12:37.574Z,2.87
2019-05-26T10:15:06.905Z,4.27
2019-05-26T10:17:35.792Z,2.63
2019-05-26T10:20:07.104Z,5.53
2019-05-26T10:22:35.993Z,3.60
2019-05-26T10:25:06.827Z,3.40
2019-05-26T10:27:35.777Z,5.73
2019-05-26T10:30:08.366Z,3.53
2019-05-26T10:32:37.235Z,4.70
2019-05-26T10:35:07.682Z,5.03
2019-05-26T10:37:36.532Z,4.27
2019-05-26T10:40:07.218Z,3.30
2019-05-26T10:42:36.060Z,3.80
2019-05-26T10:45:11.079Z,3.60
2019-05-26T10:47:39.920Z,3.70
2019-05-26T10:50:09.597Z,6.07
2019-05-26T10:52:38.443Z,3.40
2019-05-26T10:55:08.810Z,3.40
2019-05-26T10:57:37.647Z,2.83
2019-05-26T11:00:10.639Z,4.40
2019-05-26T11:02:39.496Z,5.17
2019-05-26T11:05:09.372Z,3.50
2019-05-26T11:07:38.213Z,3.27
2019-05-26T11:10:08.160Z,4.30
2019-05-26T11:12:37.054Z,4.20
2019-05-26T11:15:08.542Z,3.90
2019-05-26T11:17:37.485Z,4.17
2019-05-26T11:20:09.296Z,3.57
2019-05-26T11:22:38.134Z,4.37
2019-05-26T11:25:07.513Z,4.10
2019-05-26T11:27:36.349Z,3.80
2019-05-26T11:30:12.853Z,4.63
2019-05-26T11:32:41.722Z,3.57
2019-05-26T11:35:10.822Z,3.83
2019-05-26T11:37:39.664Z,4.13
2019-05-26T11:40:09.063Z,3.43
2019-05-26T11:42:37.940Z,5.93
2019-05-26T11:45:09.672Z,5.00
2019-05-26T11:47:38.561Z,2.47
2019-05-26T11:50:12.524Z,5.00
2019-05-26T11:52:41.412Z,2.57
2019-05-26T11:55:11.820Z,3.30
2019-05-26T11:57:40.717Z,3.30
2019-05-26T12:00:11.620Z,4.27
2019-05-26T12:02:41.850Z,2.67
2019-05-26T12:05:11.388Z,4.03
2019-05-26T12:07:40.281Z,4.27
2019-05-26T12:10:13.645Z,2.93
2019-05-26T12:12:40.408Z,2.77
2019-05-26T12:15:09.944Z,3.43
2019-05-26T12:17:38.839Z,4.17
2019-05-26T12:20:08.700Z,5.87
2019-05-26T12:22:37.599Z,2.67
2019-05-26T12:25:07.925Z,2.83
2019-05-26T12:27:36.816Z,2.90
2019-05-26T12:30:10.890Z,2.90
2019-05-26T12:32:40.372Z,4.13
2019-05-26T12:35:09.823Z,2.60
2019-05-26T12:37:38.701Z,2.70
2019-05-26T12:40:10.753Z,3.10
2019-05-26T12:42:39.593Z,3.27
2019-05-26T12:45:09.304Z,2.77
2019-05-26T12:47:38.148Z,4.77
2019-05-26T12:50:08.705Z,2.60
2019-05-26T12:52:37.787Z,3.47
2019-05-26T12:55:09.289Z,2.45
2019-05-26T12:57:37.987Z,3.80
2019-05-26T13:00:08.492Z,4.00
2019-05-26T13:02:38.461Z,4.43
2019-05-26T13:05:08.431Z,2.87
2019-05-26T13:07:37.315Z,3.80
2019-05-26T13:10:08.139Z,3.83
2019-05-26T13:12:37.032Z,3.35
2019-05-26T13:15:08.343Z,2.47
2019-05-26T13:17:37.252Z,2.20
2019-05-26T13:20:09.697Z,2.60
2019-05-26T13:22:39.574Z,3.40
2019-05-26T13:25:09.994Z,2.77
2019-05-26T13:27:38.873Z,2.80
2019-05-26T13:30:08.829Z,2.42
2019-05-26T13:32:38.644Z,3.77
2019-05-26T13:35:07.988Z,3.60
2019-05-26T13:37:36.870Z,3.13
2019-05-26T13:40:08.036Z,2.80
2019-05-26T13:42:37.458Z,2.85
2019-05-26T13:45:21.135Z,2.37
2019-05-26T13:47:38.709Z,2.98
2019-05-26T13:50:08.058Z,2.80
2019-05-26T13:52:37.139Z,2.43
2019-05-26T13:55:09.466Z,2.00
2019-05-26T13:57:38.341Z,2.67
2019-05-26T14:00:08.777Z,3.10
2019-05-26T14:02:39.068Z,3.50
2019-05-26T14:05:08.321Z,2.20
2019-05-26T14:07:37.207Z,1.80
2019-05-26T14:10:07.921Z,3.87
2019-05-26T14:12:36.813Z,3.13
2019-05-26T14:15:07.732Z,2.60
2019-05-26T14:17:38.116Z,1.80
2019-05-26T14:20:11.602Z,3.00
2019-05-26T14:22:40.521Z,2.10
2019-05-26T14:25:10.173Z,3.10
2019-05-26T14:27:39.061Z,3.10
2019-05-26T14:30:08.569Z,1.70
2019-05-26T14:32:38.937Z,1.60
2019-05-26T14:35:07.889Z,2.13
2019-05-26T14:37:36.791Z,2.10
2019-05-26T14:40:09.526Z,3.07
2019-05-26T14:42:38.613Z,3.20
2019-05-26T14:45:08.472Z,2.07
2019-05-26T14:47:37.355Z,1.77
2019-05-26T14:50:09.832Z,1.93
2019-05-26T14:52:38.819Z,2.50
2019-05-26T14:55:07.977Z,1.67
2019-05-26T14:57:36.863Z,2.03
2019-05-26T15:00:08.417Z,1.77
2019-05-26T15:02:37.270Z,1.70
2019-05-26T15:05:07.157Z,2.60
2019-05-26T15:07:36.296Z,1.50
2019-05-26T15:10:07.355Z,1.63
2019-05-26T15:12:36.225Z,1.60
2019-05-26T15:15:07.286Z,6.73
2019-05-26T15:17:36.122Z,1.60
2019-05-26T15:20:06.625Z,1.90
2019-05-26T15:22:35.471Z,1.80
2019-05-26T15:25:06.062Z,2.13
2019-05-26T15:27:34.921Z,1.80
2019-05-26T15:30:06.905Z,2.00
2019-05-26T15:32:35.757Z,2.40
2019-05-26T15:35:07.705Z,3.03
2019-05-26T15:37:36.535Z,2.00
2019-05-26T15:40:08.312Z,3.33
2019-05-26T15:42:37.154Z,2.00
2019-05-26T15:45:09.580Z,2.23
2019-05-26T15:47:38.432Z,2.07
2019-05-26T15:50:08.209Z,2.27
2019-05-26T15:52:37.075Z,2.33
2019-05-26T15:55:07.452Z,2.40
2019-05-26T15:57:36.292Z,2.53
2019-05-26T16:00:09.349Z,2.30
2019-05-26T16:02:38.152Z,2.47
2019-05-26T16:05:07.519Z,2.90
2019-05-26T16:07:36.353Z,2.50
2019-05-26T16:10:09.196Z,2.60
2019-05-26T16:12:38.032Z,23.60
2019-05-26T16:15:08.766Z,2.30
2019-05-26T16:17:38.918Z,2.53
2019-05-26T16:20:09.277Z,2.20
2019-05-26T16:22:38.110Z,2.03
2019-05-26T16:25:07.429Z,2.10
2019-05-26T16:27:36.220Z,2.37
2019-05-26T16:30:10.857Z,1.93
2019-05-26T16:32:39.688Z,3.87
2019-05-26T16:35:08.959Z,1.73
2019-05-26T16:37:37.786Z,3.20
2019-05-26T16:40:07.366Z,4.07
2019-05-26T16:42:36.196Z,3.40
2019-05-26T16:45:06.670Z,4.10
2019-05-26T16:47:35.491Z,3.40
2019-05-26T16:50:06.159Z,2.00
2019-05-26T16:52:34.999Z,2.03
2019-05-26T16:55:04.563Z,2.10
2019-05-26T16:57:33.396Z,2.00
2019-05-26T17:00:03.415Z,2.10
2019-05-26T17:02:32.247Z,1.97
2019-05-26T17:05:01.113Z,3.00
2019-05-26T17:07:29.930Z,2.47
2019-05-26T17:09:58.813Z,1.97
2019-05-26T17:12:27.640Z,2.57
2019-05-26T17:14:56.518Z,1.97
2019-05-26T17:17:25.340Z,2.57
2019-05-26T17:19:54.208Z,2.27
2019-05-26T17:22:23.035Z,2.30
2019-05-26T17:24:51.867Z,5.90
2019-05-26T17:27:20.729Z,2.23
2019-05-26T17:29:49.560Z,2.30
2019-05-26T17:32:19.930Z,3.77
2019-05-26T17:34:48.911Z,3.23
2019-05-26T17:37:17.775Z,3.37
2019-05-26T17:39:46.611Z,3.07
2019-05-26T17:42:15.477Z,2.20
2019-05-26T17:44:44.304Z,2.73
2019-05-26T17:47:13.175Z,2.57
2019-05-26T17:49:42.008Z,3.90
2019-05-26T17:52:10.875Z,3.73
2019-05-26T17:54:39.711Z,3.40
2019-05-26T17:57:08.589Z,2.50
2019-05-26T17:59:37.428Z,1.97
2019-05-26T18:02:08.251Z,4.23
2019-05-26T18:04:37.078Z,2.27
2019-05-26T18:07:05.947Z,2.20
2019-05-26T18:09:43.692Z,3.50
2019-05-26T18:12:05.393Z,3.17
2019-05-26T18:14:34.232Z,3.87
2019-05-26T18:17:03.094Z,2.17
2019-05-26T18:19:31.927Z,2.33
2019-05-26T18:22:00.806Z,3.30
2019-05-26T18:24:29.626Z,2.10
2019-05-26T18:26:58.507Z,1.97
2019-05-26T18:29:27.338Z,2.37
2019-05-26T18:31:56.624Z,3.93
2019-05-26T18:34:25.629Z,2.73
2019-05-26T18:36:54.495Z,2.20
2019-05-26T18:39:23.365Z,2.17
2019-05-26T18:41:52.199Z,2.87
2019-05-26T18:44:21.071Z,2.43
2019-05-26T18:46:53.347Z,3.60
2019-05-26T18:49:20.420Z,3.53
2019-05-26T18:51:49.261Z,3.77
2019-05-26T18:54:18.131Z,2.30
2019-05-26T18:56:46.956Z,3.37
2019-05-26T18:59:15.830Z,4.60
2019-05-26T19:01:44.668Z,2.40
2019-05-26T19:04:13.493Z,4.97
2019-05-26T19:06:42.364Z,3.57
2019-05-26T19:09:11.200Z,2.77
2019-05-26T19:11:40.076Z,2.37
2019-05-26T19:14:08.942Z,3.63
2019-05-26T19:16:37.774Z,2.10
2019-05-26T19:19:06.649Z,3.77
2019-05-26T19:21:35.487Z,3.20
2019-05-26T19:24:04.363Z,3.47
2019-05-26T19:26:33.230Z,2.97
2019-05-26T19:29:02.127Z,5.97
2019-05-26T19:31:30.972Z,5.60
2019-05-26T19:33:59.869Z,3.67
2019-05-26T19:36:28.717Z,3.93
2019-05-26T19:38:57.600Z,3.93
2019-05-26T19:41:27.740Z,2.40
2019-05-26T19:43:56.624Z,2.57
2019-05-26T19:46:25.457Z,2.60
2019-05-26T19:48:54.334Z,2.50
2019-05-26T19:51:23.167Z,2.83
2019-05-26T19:53:52.035Z,2.50
2019-05-26T19:56:20.887Z,2.93
2019-05-26T19:58:49.759Z,2.50
2019-05-26T20:01:18.589Z,6.00
2019-05-26T20:03:47.463Z,2.53
2019-05-26T20:06:16.403Z,5.23
2019-05-26T20:08:45.349Z,3.47
2019-05-26T20:11:14.247Z,3.67
2019-05-26T20:13:43.262Z,4.23
2019-05-26T20:16:12.084Z,3.23
2019-05-26T20:18:40.951Z,2.60
2019-05-26T20:21:09.781Z,2.80
2019-05-26T20:23:38.651Z,2.90
2019-05-26T20:26:07.483Z,3.83
2019-05-26T20:28:36.314Z,4.97
2019-05-26T20:31:05.190Z,3.73
2019-05-26T20:33:34.013Z,2.70
2019-05-26T20:36:02.879Z,3.03
2019-05-26T20:38:31.705Z,5.40
2019-05-26T20:41:00.873Z,4.83
2019-05-26T20:43:30.591Z,5.13
2019-05-26T20:45:59.460Z,4.83
2019-05-26T20:48:28.592Z,4.57
2019-05-26T20:50:57.551Z,4.80
2019-05-26T20:53:26.424Z,4.13
2019-05-26T20:55:55.247Z,2.57
2019-05-26T20:58:24.115Z,3.27
2019-05-26T21:00:53.456Z,3.10
2019-05-26T21:03:22.411Z,2.80
2019-05-26T21:05:51.280Z,2.67
2019-05-26T21:08:20.110Z,3.17
2019-05-26T21:10:48.975Z,3.00
2019-05-26T21:13:17.807Z,3.30
2019-05-26T21:15:46.686Z,2.87
2019-05-26T21:18:15.529Z,2.90
2019-05-26T21:20:45.183Z,4.07
2019-05-26T21:23:14.008Z,6.33
2019-05-26T21:25:42.879Z,4.90
2019-05-26T21:28:11.721Z,2.70
2019-05-26T21:30:40.587Z,3.00
2019-05-26T21:33:09.448Z,4.23
2019-05-26T21:35:38.293Z,3.43
2019-05-26T21:38:07.166Z,2.93
2019-05-26T21:40:35.991Z,3.40
2019-05-26T21:43:04.852Z,3.10
2019-05-26T21:45:33.687Z,3.33
2019-05-26T21:48:02.559Z,3.77
2019-05-26T21:50:31.391Z,4.40
2019-05-26T21:53:00.258Z,4.20
2019-05-26T21:55:29.088Z,3.17
2019-05-26T21:57:57.950Z,3.37
2019-05-26T22:00:29.259Z,3.10
2019-05-26T22:02:58.128Z,3.30
2019-05-26T22:05:26.998Z,3.10
2019-05-26T22:07:55.829Z,5.67
2019-05-26T22:10:24.704Z,4.47
2019-05-26T22:12:53.531Z,3.17
2019-05-26T22:15:22.387Z,6.13
2019-05-26T22:17:51.220Z,3.13
2019-05-26T22:20:20.586Z,2.80
2019-05-26T22:22:49.414Z,2.50
2019-05-26T22:25:18.270Z,3.80
2019-05-26T22:27:47.108Z,3.23
2019-05-26T22:30:16.681Z,2.90
2019-05-26T22:32:45.507Z,3.27
2019-05-26T22:35:14.379Z,5.00
2019-05-26T22:37:43.207Z,7.63
2019-05-26T22:40:12.666Z,3.80
2019-05-26T22:42:41.514Z,3.57
2019-05-26T22:45:11.367Z,3.23
2019-05-26T22:47:40.219Z,4.27
2019-05-26T22:50:09.173Z,3.40
2019-05-26T22:52:38.108Z,3.93
2019-05-26T22:55:08.356Z,3.73
2019-05-26T22:57:37.203Z,3.70
2019-05-26T23:00:08.833Z,3.63
2019-05-26T23:02:37.699Z,4.20
2019-05-26T23:05:07.131Z,3.20
2019-05-26T23:07:36.004Z,3.63
2019-05-26T23:10:06.803Z,4.70
2019-05-26T23:12:35.673Z,4.03
2019-05-26T23:15:07.575Z,2.77
2019-05-26T23:17:36.440Z,4.87
2019-05-26T23:20:06.760Z,3.37
2019-05-26T23:22:35.617Z,3.30
2019-05-26T23:25:05.442Z,3.63
2019-05-26T23:27:34.298Z,3.57
2019-05-26T23:30:04.631Z,3.30
2019-05-26T23:32:33.500Z,4.43
2019-05-26T23:35:02.601Z,4.63
2019-05-26T23:37:31.439Z,3.30
2019-05-26T23:40:00.262Z,3.20
2019-05-26T23:42:29.134Z,3.10
2019-05-26T23:44:57.951Z,3.37
2019-05-26T23:47:26.820Z,3.03
2019-05-26T23:49:55.646Z,3.07
2019-05-26T23:52:24.514Z,2.83
2019-05-26T23:54:53.344Z,4.63
2019-05-26T23:57:22.172Z,5.37
2019-05-26T23:59:51.044Z,3.10
